createdAt,value
2022-12-20T00:01:28.801Z,102336.56
2022-12-20T00:04:30.472Z,102332.34
2022-12-20T00:07:32.787Z,102322.06
2022-12-20T00:10:41.734Z,102325.09
2022-12-20T00:13:46.433Z,102324.72
2022-12-20T00:16:48.058Z,102332.34
2022-12-20T00:19:49.692Z,102339.72
2022-12-20T00:22:51.407Z,102344.78
2022-12-20T00:25:53.290Z,102347.72
2022-12-20T00:28:56.123Z,102352.53
2022-12-20T00:31:57.802Z,102345.88
2022-12-20T00:34:59.440Z,102349.78
2022-12-20T00:38:01.096Z,102359.63
2022-12-20T00:41:14.095Z,102369.22
2022-12-20T00:44:15.804Z,102364.12
2022-12-20T00:47:17.703Z,102362.34
2022-12-20T00:50:19.363Z,102359.00
2022-12-20T00:53:26.168Z,102359.41
2022-12-20T00:56:28.220Z,102351.13
2022-12-20T00:59:29.888Z,102342.37
2022-12-20T01:02:31.689Z,102335.81
2022-12-20T01:05:34.021Z,102320.16
2022-12-20T01:08:35.776Z,102315.50
2022-12-20T01:11:38.848Z,102306.84
2022-12-20T01:14:40.730Z,102311.13
2022-12-20T01:17:42.505Z,102320.63
2022-12-20T01:20:44.105Z,102309.41
2022-12-20T01:23:46.236Z,102301.81
2022-12-20T01:26:48.229Z,102293.97
2022-12-20T01:29:49.966Z,102295.94
2022-12-20T01:32:51.609Z,102292.50
2022-12-20T01:36:01.269Z,102284.37
2022-12-20T01:39:09.478Z,102273.13
2022-12-20T01:42:15.433Z,102284.03
2022-12-20T01:45:27.275Z,102273.38
2022-12-20T01:48:29.120Z,102270.03
2022-12-20T01:51:34.587Z,102270.28
2022-12-20T01:54:41.171Z,102269.41
2022-12-20T01:57:48.149Z,102265.78
2022-12-20T02:00:49.877Z,102266.88
2022-12-20T02:03:54.130Z,102260.53
2022-12-20T02:06:56.259Z,102244.84
2022-12-20T02:10:00.649Z,102259.06
2022-12-20T02:13:12.577Z,102254.88
2022-12-20T02:16:22.847Z,102253.44
2022-12-20T02:19:46.533Z,102245.78
2022-12-20T02:23:13.642Z,102240.13
2022-12-20T02:27:00.455Z,102234.13
2022-12-20T02:30:17.770Z,102224.09
2022-12-20T02:33:22.230Z,102224.66
2022-12-20T02:36:25.577Z,102218.28
2022-12-20T02:39:29.893Z,102209.91
2022-12-20T02:42:33.302Z,102212.09
2022-12-20T02:45:37.573Z,102202.41
2022-12-20T02:48:41.646Z,102194.41
2022-12-20T02:51:47.600Z,102198.25
2022-12-20T02:54:49.312Z,102193.13
2022-12-20T02:58:00.643Z,102186.97
2022-12-20T03:01:09.117Z,102182.94
2022-12-20T03:04:11.585Z,102182.94
2022-12-20T03:07:14.331Z,102175.66
2022-12-20T03:10:17.646Z,102185.69
2022-12-20T03:13:19.885Z,102184.22
2022-12-20T03:16:22.264Z,102190.41
2022-12-20T03:19:24.512Z,102185.16
2022-12-20T03:22:26.202Z,102178.94
2022-12-20T03:25:27.961Z,102187.50
2022-12-20T03:28:29.622Z,102183.13
2022-12-20T03:31:31.500Z,102184.75
2022-12-20T03:34:33.254Z,102191.88
2022-12-20T03:37:34.893Z,102188.22
2022-12-20T03:40:36.528Z,102193.31
2022-12-20T03:43:38.152Z,102193.50
2022-12-20T03:46:39.965Z,102192.22
2022-12-20T03:49:41.642Z,102194.22
2022-12-20T03:52:43.275Z,102186.56
2022-12-20T03:55:45.757Z,102198.59
2022-12-20T03:58:47.546Z,102197.44
2022-12-20T04:01:49.305Z,102185.97
2022-12-20T04:04:51.127Z,102173.59
2022-12-20T04:07:52.787Z,102179.28
2022-12-20T04:11:12.929Z,102169.97
2022-12-20T04:14:14.565Z,102156.19
2022-12-20T04:17:16.246Z,102149.41
2022-12-20T04:20:20.766Z,102150.88
2022-12-20T04:23:22.480Z,102148.34
2022-12-20T04:26:25.312Z,102144.16
2022-12-20T04:29:27.082Z,102131.41
2022-12-20T04:32:28.712Z,102141.06
2022-12-20T04:35:30.341Z,102146.34
2022-12-20T04:38:31.982Z,102146.00
2022-12-20T04:41:33.649Z,102148.34
2022-12-20T04:44:35.295Z,102144.53
2022-12-20T04:47:36.974Z,102145.44
2022-12-20T04:50:39.582Z,102150.91
2022-12-20T04:53:49.965Z,102151.66
2022-12-20T04:56:51.607Z,102145.09
2022-12-20T04:59:53.264Z,102148.75
2022-12-20T05:02:55.057Z,102150.75
2022-12-20T05:05:56.846Z,102151.81
2022-12-20T05:08:58.566Z,102134.91
2022-12-20T05:12:00.234Z,102130.34
2022-12-20T05:15:01.933Z,102129.44
2022-12-20T05:18:04.067Z,102132.69
2022-12-20T05:21:24.617Z,102129.44
2022-12-20T05:24:44.681Z,102130.69
2022-12-20T05:27:46.329Z,102131.06
2022-12-20T05:30:47.961Z,102121.25
2022-12-20T05:33:49.668Z,102121.22
2022-12-20T05:36:51.562Z,102126.34
2022-12-20T05:39:53.186Z,102132.34
2022-12-20T05:42:55.302Z,102133.62
2022-12-20T05:45:56.955Z,102146.72
2022-12-20T05:48:58.777Z,102146.53
2022-12-20T05:52:02.427Z,102142.53
2022-12-20T05:55:04.300Z,102140.34
2022-12-20T05:58:07.454Z,102152.00
2022-12-20T06:01:10.486Z,102139.81
2022-12-20T06:04:12.242Z,102130.00
2022-12-20T06:07:13.977Z,102129.44
2022-12-20T06:10:15.673Z,102138.50
2022-12-20T06:13:17.743Z,102135.22
2022-12-20T06:16:20.825Z,102134.53
2022-12-20T06:19:22.530Z,102132.31
2022-12-20T06:22:24.144Z,102137.75
2022-12-20T06:25:25.848Z,102138.09
2022-12-20T06:28:27.525Z,102144.50
2022-12-20T06:31:29.274Z,102141.94
2022-12-20T06:34:32.078Z,102149.94
2022-12-20T06:37:33.878Z,102151.94
2022-12-20T06:40:35.552Z,102152.47
2022-12-20T06:43:37.224Z,102157.00
2022-12-20T06:46:38.965Z,102147.38
2022-12-20T06:49:40.578Z,102138.44
2022-12-20T06:52:42.369Z,102135.16
2022-12-20T06:55:47.943Z,102124.94
2022-12-20T06:58:49.556Z,102128.91
2022-12-20T07:01:51.398Z,102133.44
2022-12-20T07:04:53.515Z,102135.97
2022-12-20T07:07:55.160Z,102125.41
2022-12-20T07:10:57.011Z,102111.03
2022-12-20T07:13:59.053Z,102112.56
2022-12-20T07:17:00.905Z,102108.66
2022-12-20T07:20:07.584Z,102102.84
2022-12-20T07:23:12.689Z,102088.31
2022-12-20T07:26:15.426Z,102090.53
2022-12-20T07:29:17.065Z,102086.84
2022-12-20T07:32:18.877Z,102088.81
2022-12-20T07:35:20.580Z,102078.19
2022-12-20T07:38:22.254Z,102072.00
2022-12-20T07:41:25.223Z,102075.91
2022-12-20T07:44:26.847Z,102063.00
2022-12-20T07:47:29.403Z,102065.28
2022-12-20T07:50:32.960Z,102068.47
2022-12-20T07:53:40.217Z,102069.88
2022-12-20T07:56:47.386Z,102063.75
2022-12-20T07:59:54.571Z,102058.59
2022-12-20T08:03:04.834Z,102055.31
2022-12-20T08:06:08.179Z,102044.50
2022-12-20T08:09:13.495Z,102046.56
2022-12-20T08:12:18.267Z,102061.22
2022-12-20T08:15:22.425Z,102066.78
2022-12-20T08:18:24.336Z,102067.22
2022-12-20T08:21:26.579Z,102061.88
2022-12-20T08:24:28.240Z,102062.72
2022-12-20T08:27:29.971Z,102046.09
2022-12-20T08:30:31.769Z,102044.50
2022-12-20T08:33:35.184Z,102045.84
2022-12-20T08:36:37.022Z,102045.06
2022-12-20T08:39:39.170Z,102041.53
2022-12-20T08:42:40.803Z,102045.50
2022-12-20T08:45:42.513Z,102045.72
2022-12-20T08:48:44.257Z,102048.19
2022-12-20T08:51:45.960Z,102046.69
2022-12-20T08:54:47.688Z,102051.88
2022-12-20T08:57:49.309Z,102060.84
2022-12-20T09:00:50.942Z,102059.31
2022-12-20T09:03:53.328Z,102069.88
2022-12-20T09:06:54.983Z,102063.56
2022-12-20T09:09:56.587Z,102053.87
2022-12-20T09:12:58.216Z,102040.25
2022-12-20T09:16:04.693Z,102033.59
2022-12-20T09:19:06.870Z,102022.06
2022-12-20T09:22:28.967Z,102013.19
2022-12-20T09:25:30.622Z,102001.62
2022-12-20T09:28:33.563Z,102001.22
2022-12-20T09:31:35.390Z,101995.38
2022-12-20T09:34:37.120Z,101985.22
2022-12-20T09:37:38.764Z,101978.53
2022-12-20T09:40:48.502Z,101994.56
2022-12-20T09:43:50.713Z,101989.16
2022-12-20T09:47:20.749Z,101988.12
2022-12-20T09:50:38.112Z,101988.91
2022-12-20T09:53:45.779Z,101993.97
2022-12-20T09:57:18.215Z,101985.91
2022-12-20T10:00:20.998Z,101979.69
2022-12-20T10:03:29.246Z,101982.34
2022-12-20T10:07:00.683Z,101992.97
2022-12-20T10:10:05.140Z,101988.28
2022-12-20T10:13:16.570Z,101980.62
2022-12-20T10:16:25.605Z,101965.72
2022-12-20T10:19:27.290Z,101961.19
2022-12-20T10:22:53.011Z,101954.12
2022-12-20T10:25:57.622Z,101953.53
2022-12-20T10:28:59.490Z,101944.63
2022-12-20T10:32:02.286Z,101946.06
2022-12-20T10:35:10.072Z,101949.00
2022-12-20T10:38:13.850Z,101940.88
2022-12-20T10:41:21.809Z,101925.81
2022-12-20T10:44:28.390Z,101921.87
2022-12-20T10:47:38.940Z,101926.34
2022-12-20T10:50:40.703Z,101905.91
2022-12-20T10:54:01.380Z,101901.09
2022-12-20T10:57:27.718Z,101903.59
2022-12-20T11:00:31.019Z,101902.56
2022-12-20T11:03:33.004Z,101893.06
2022-12-20T11:06:37.781Z,101884.59
2022-12-20T11:09:54.916Z,101879.66
2022-12-20T11:12:59.081Z,101868.94
2022-12-20T11:16:01.731Z,101867.41
2022-12-20T11:19:17.402Z,101860.19
2022-12-20T11:22:34.806Z,101854.44
2022-12-20T11:25:48.550Z,101839.50
2022-12-20T11:29:24.314Z,101840.25
2022-12-20T11:32:28.603Z,101833.19
2022-12-20T11:35:39.284Z,101832.41
2022-12-20T11:38:45.652Z,101826.37
2022-12-20T11:42:02.143Z,101823.66
2022-12-20T11:45:25.279Z,101828.62
2022-12-20T11:49:01.030Z,101826.50
2022-12-20T11:52:24.301Z,101811.69
2022-12-20T11:55:35.041Z,101821.03
2022-12-20T11:59:00.253Z,101810.88
2022-12-20T12:02:13.175Z,101795.72
2022-12-20T12:05:29.942Z,101801.28
2022-12-20T12:08:40.920Z,101791.00
2022-12-20T12:12:06.827Z,101791.78
2022-12-20T12:15:16.992Z,101789.97
2022-12-20T12:18:25.447Z,101785.44
2022-12-20T12:21:33.669Z,101790.16
2022-12-20T12:24:42.623Z,101787.00
2022-12-20T12:27:44.870Z,101790.75
2022-12-20T12:30:56.902Z,101793.31
2022-12-20T12:34:27.524Z,101781.22
2022-12-20T12:37:53.213Z,101774.91
2022-12-20T12:41:06.712Z,101777.13
2022-12-20T12:44:46.119Z,101771.12
2022-12-20T12:47:56.762Z,101766.13
2022-12-20T12:50:59.554Z,101767.59
2022-12-20T12:54:24.428Z,101766.81
2022-12-20T12:57:26.171Z,101767.78
2022-12-20T13:00:54.075Z,101764.59
2022-12-20T13:03:55.844Z,101754.59
2022-12-20T13:07:18.845Z,101763.94
2022-12-20T13:10:21.969Z,101753.06
2022-12-20T13:13:24.168Z,101753.22
2022-12-20T13:17:02.312Z,101757.00
2022-12-20T13:19:53.874Z,101764.06
2022-12-20T13:23:07.882Z,101764.69
2022-12-20T13:26:50.501Z,101764.97
2022-12-20T13:30:13.239Z,101754.72
2022-12-20T13:33:30.378Z,101753.97
2022-12-20T13:36:37.861Z,101753.78
2022-12-20T13:39:39.867Z,101747.59
2022-12-20T13:42:43.512Z,101761.19
2022-12-20T13:45:51.388Z,101744.72
2022-12-20T13:48:57.116Z,101751.34
2022-12-20T13:52:23.146Z,101742.16
2022-12-20T13:55:39.160Z,101741.38
2022-12-20T13:58:43.896Z,101729.97
2022-12-20T14:01:53.787Z,101728.56
2022-12-20T14:05:10.308Z,101706.12
2022-12-20T14:08:23.017Z,101699.81
2022-12-20T14:11:29.479Z,101693.91
2022-12-20T14:14:31.477Z,101692.88
2022-12-20T14:17:33.565Z,101689.28
2022-12-20T14:20:37.690Z,101693.94
2022-12-20T14:23:47.631Z,101696.22
2022-12-20T14:26:52.734Z,101700.44
2022-12-20T14:29:54.413Z,101677.06
2022-12-20T14:32:57.129Z,101662.81
2022-12-20T14:36:07.991Z,101670.94
2022-12-20T14:39:32.582Z,101671.41
2022-12-20T14:42:36.357Z,101662.97
2022-12-20T14:45:38.737Z,101658.91
2022-12-20T14:48:40.441Z,101662.69
2022-12-20T14:51:42.265Z,101659.56
2022-12-20T14:55:07.626Z,101644.19
2022-12-20T14:58:31.279Z,101640.09
2022-12-20T15:01:37.069Z,101636.19
2022-12-20T15:04:41.651Z,101636.34
2022-12-20T15:07:43.316Z,101641.91
2022-12-20T15:10:55.261Z,101648.41
2022-12-20T15:13:59.050Z,101640.13
2022-12-20T15:17:00.836Z,101642.53
2022-12-20T15:20:02.468Z,101633.31
2022-12-20T15:23:04.213Z,101631.53
2022-12-20T15:26:05.851Z,101628.34
2022-12-20T15:29:15.280Z,101623.25
2022-12-20T15:32:34.837Z,101615.56
2022-12-20T15:35:37.166Z,101612.09
2022-12-20T15:39:03.937Z,101615.88
2022-12-20T15:42:04.216Z,101615.09
2022-12-20T15:45:06.225Z,101614.06
2022-12-20T15:48:14.029Z,101624.13
2022-12-20T15:51:30.436Z,101612.69
2022-12-20T15:54:37.125Z,101616.31
2022-12-20T15:57:38.775Z,101617.38
2022-12-20T16:00:41.718Z,101632.09
2022-12-20T16:03:43.555Z,101639.81
2022-12-20T16:06:47.657Z,101631.69
2022-12-20T16:09:49.367Z,101629.69
2022-12-20T16:12:51.026Z,101627.44
2022-12-20T16:15:53.615Z,101633.94
2022-12-20T16:18:55.565Z,101630.31
2022-12-20T16:21:58.117Z,101631.78
2022-12-20T16:24:59.739Z,101648.53
2022-12-20T16:28:01.712Z,101652.44
2022-12-20T16:31:11.439Z,101653.19
2022-12-20T16:34:16.177Z,101650.19
2022-12-20T16:37:18.246Z,101655.94
2022-12-20T16:40:19.987Z,101643.53
2022-12-20T16:43:21.630Z,101646.84
2022-12-20T16:46:27.311Z,101652.00
2022-12-20T16:49:29.021Z,101648.53
2022-12-20T16:52:30.884Z,101650.03
2022-12-20T16:55:39.445Z,101656.50
2022-12-20T16:59:17.406Z,101643.56
2022-12-20T17:02:20.000Z,101643.87
2022-12-20T17:05:21.871Z,101640.53
2022-12-20T17:11:43.352Z,101636.31
2022-12-20T17:14:45.222Z,101633.31
2022-12-20T17:17:47.313Z,101631.50
2022-12-20T17:20:49.032Z,101616.59
2022-12-20T17:23:51.798Z,101617.03
2022-12-20T17:26:53.570Z,101625.50
2022-12-20T17:29:55.248Z,101624.44
2022-12-20T17:32:56.877Z,101617.66
2022-12-20T17:35:58.536Z,101604.25
2022-12-20T17:39:00.181Z,101598.09
2022-12-20T17:42:01.929Z,101603.03
2022-12-20T17:45:03.862Z,101601.53
2022-12-20T17:48:05.899Z,101590.69
2022-12-20T17:51:15.136Z,101577.47
2022-12-20T17:54:22.068Z,101580.75
2022-12-20T17:57:23.738Z,101591.16
2022-12-20T18:00:34.768Z,101584.66
2022-12-20T18:04:02.949Z,101574.91
2022-12-20T18:07:02.269Z,101584.22
2022-12-20T18:10:04.232Z,101583.31
2022-12-20T18:13:06.402Z,101572.78
2022-12-20T18:16:08.617Z,101569.75
2022-12-20T18:19:18.448Z,101565.69
2022-12-20T18:22:20.088Z,101558.44
2022-12-20T18:25:22.061Z,101567.03
2022-12-20T18:28:23.959Z,101566.59
2022-12-20T18:31:28.353Z,101560.88
2022-12-20T18:34:30.170Z,101555.31
2022-12-20T18:37:32.241Z,101568.56
2022-12-20T18:40:34.234Z,101565.72
2022-12-20T18:43:36.255Z,101569.31
2022-12-20T18:46:38.438Z,101565.53
2022-12-20T18:49:40.332Z,101568.44
2022-12-20T18:52:43.851Z,101558.63
2022-12-20T18:55:48.886Z,101562.22
2022-12-20T18:58:50.692Z,101558.47
2022-12-20T19:01:53.281Z,101559.34
2022-12-20T19:04:55.166Z,101552.00
2022-12-20T19:07:57.377Z,101556.22
2022-12-20T19:11:04.353Z,101545.97
2022-12-20T19:14:07.858Z,101541.31
2022-12-20T19:17:10.044Z,101536.94
2022-12-20T19:20:11.812Z,101536.47
2022-12-20T19:23:13.995Z,101536.19
2022-12-20T19:26:16.920Z,101537.09
2022-12-20T19:29:20.901Z,101535.22
2022-12-20T19:32:22.938Z,101528.91
2022-12-20T19:35:54.076Z,101531.16
2022-12-20T19:38:52.129Z,101512.03
2022-12-20T19:42:24.633Z,101508.28
2022-12-20T19:45:16.222Z,101509.50
2022-12-20T19:48:19.609Z,101503.81
2022-12-20T19:51:22.144Z,101504.25
2022-12-20T19:54:23.773Z,101501.69
2022-12-20T19:57:26.082Z,101492.50
2022-12-20T20:00:28.426Z,101496.72
2022-12-20T20:03:31.442Z,101494.75
2022-12-20T20:06:33.793Z,101501.94
2022-12-20T20:09:36.625Z,101495.22
2022-12-20T20:12:38.635Z,101500.03
2022-12-20T20:15:40.705Z,101506.94
2022-12-20T20:18:43.435Z,101511.00
2022-12-20T20:21:45.668Z,101499.56
2022-12-20T20:24:47.867Z,101504.41
2022-12-20T20:27:49.820Z,101500.00
2022-12-20T20:30:52.282Z,101504.19
2022-12-20T20:33:55.034Z,101502.13
2022-12-20T20:36:57.707Z,101486.75
2022-12-20T20:39:59.892Z,101500.16
2022-12-20T20:43:02.227Z,101487.22
2022-12-20T20:46:04.825Z,101493.59
2022-12-20T20:49:06.628Z,101494.31
2022-12-20T20:52:08.708Z,101496.41
2022-12-20T20:55:10.656Z,101497.44
2022-12-20T20:58:12.938Z,101501.47
2022-12-20T21:01:15.013Z,101505.47
2022-12-20T21:04:17.059Z,101507.84
2022-12-20T21:07:19.216Z,101497.31
2022-12-20T21:10:21.504Z,101499.56
2022-12-20T21:13:24.350Z,101504.72
2022-12-20T21:16:26.268Z,101503.47
2022-12-20T21:19:27.961Z,101500.22
2022-12-20T21:22:29.950Z,101489.34
2022-12-20T21:25:32.090Z,101480.78
2022-12-20T21:28:33.752Z,101471.25
2022-12-20T21:31:36.294Z,101470.00
2022-12-20T21:34:38.413Z,101465.38
2022-12-20T21:37:40.049Z,101462.41
2022-12-20T21:40:41.691Z,101458.34
2022-12-20T21:43:43.837Z,101460.03
2022-12-20T21:46:45.505Z,101456.69
2022-12-20T21:49:47.283Z,101460.91
2022-12-20T21:52:48.952Z,101456.41
2022-12-20T21:55:54.007Z,101455.47
2022-12-20T21:58:56.303Z,101440.09
2022-12-20T22:01:58.420Z,101425.41
2022-12-20T22:05:00.325Z,101420.44
2022-12-20T22:08:01.999Z,101425.97
2022-12-20T22:11:15.165Z,101420.13
2022-12-20T22:14:16.807Z,101412.47
2022-12-20T22:17:18.498Z,101398.91
2022-12-20T22:20:20.112Z,101375.47
2022-12-20T22:23:21.787Z,101374.81
2022-12-20T22:26:26.075Z,101376.16
2022-12-20T22:29:27.756Z,101385.22
2022-12-20T22:32:29.380Z,101391.78
2022-12-20T22:35:31.017Z,101396.75
2022-12-20T22:38:32.946Z,101372.47
2022-12-20T22:41:34.964Z,101362.09
2022-12-20T22:44:36.839Z,101373.66
2022-12-20T22:51:04.410Z,101365.72
2022-12-20T22:54:06.053Z,101377.75
2022-12-20T22:57:10.360Z,101351.16
2022-12-20T23:00:13.256Z,101340.19
2022-12-20T23:03:15.063Z,101348.91
2022-12-20T23:06:20.287Z,101341.72
2022-12-20T23:09:24.860Z,101336.44
2022-12-20T23:12:45.579Z,101329.66
2022-12-20T23:15:48.550Z,101336.72
2022-12-20T23:18:53.347Z,101337.66
2022-12-20T23:22:13.517Z,101333.16
2022-12-20T23:25:18.238Z,101331.22
2022-12-20T23:28:19.839Z,101319.16
2022-12-20T23:31:21.470Z,101317.03
2022-12-20T23:34:23.355Z,101326.00
2022-12-20T23:37:25.088Z,101334.75
2022-12-20T23:40:26.725Z,101344.09
2022-12-20T23:43:31.242Z,101341.81
2022-12-20T23:46:34.047Z,101342.31
2022-12-20T23:49:36.173Z,101314.28
2022-12-20T23:52:37.799Z,101312.50
2022-12-20T23:55:39.640Z,101308.09
2022-12-20T23:58:42.389Z,101300.78
